Wyocena, Wisconsin
Current Conditions -  °F | °C
As of 12:55 PM on Monday 20 Oct 2014 (Local Time) from KDLL Reporting Station
Overcast Overcast  
Wind Chill: 57°   Ceiling: 3700
Heat Index: 57°   Visibility: 10mi
Dew Point: 40°   Wind: 7mph
Humidity: 52%   Direction: 360°N
Pressure: 29.9"   Gusts: 20mph
Location:  43.5°N, 89.31°W
Report Text: KDLL 201755Z AUTO 36006G17KT 310V010 10SM BKN037 OVC042 14/04 A2990 RMK AO2 T01410044 10147 20082
Loading
Personal Weather Stations






























Interactive Weather Map
Tropical Storm Tracking
New forecast layout! Learn more

10-Day Weather Forecast

Advertisements
Track Severe Weather on mobile